Robuste — FW9418 — position and weather

sailwx.info

Track history (hours):
 
Tides and Currents Weather Stations Pressure Air Temp Water Temp Dewpoint Dewpoint Depression Visibility Wind Speed Wind Dir Waves Ship Positions

Robuste

Last reported at 2018-Feb-19 21:31 UTC. Time now 2018-Feb-19 22:00 UTC.
Position N 48°23' W 004°27'.

Length 30 m; draft 4.9 m.

Type: Tug. MMSI: 227006750.

Date/timePositionNaut miles runAvg speedWind from/ knotsBaromVisibWave heightAir tempDewpointWater temp
2018-Feb-19 21:31N 48°23' W 004°27'2 3.2
2018-Feb-19 21:01N 48°22' W 004°29'0 0.7
2018-Feb-19 20:31N 48°22' W 004°30'1 0.2
2018-Feb-19 15:32N 48°23' W 004°29'0 0.2
2018-Feb-19 15:31N 48°23' W 004°29'1 2.5
2018-Feb-19 15:00N 48°23' W 004°27'1 0.2
2018-Feb-19 09:48N 48°23' W 004°29'1 4.2
2018-Feb-19 09:30N 48°23' W 004°27'1 2.4
2018-Feb-19 09:01N 48°22' W 004°28'1 1.5
2018-Feb-19 08:31N 48°22' W 004°29'1 0.0
2018-Feb-18 04:10N 48°23' W 004°29'1 3.3
2018-Feb-18 04:00N 48°23' W 004°28'1 1.6
2018-Feb-18 03:31N 48°23' W 004°27'2 3.6
2018-Feb-18 03:01N 48°22' W 004°29'1 2.6
2018-Feb-18 02:30N 48°23' W 004°29'  
2018-Feb-14 07:28N 48°23' W 004°29'1 1.9
2018-Feb-14 07:01N 48°23' W 004°28'1 1.8
2018-Feb-14 06:31N 48°22' W 004°28'2 3.6
2018-Feb-14 06:01N 48°22' W 004°31'2 0.2
2018-Feb-13 19:57N 48°23' W 004°29'1 1.6
2018-Feb-13 19:30N 48°23' W 004°28'0 0.2
2018-Feb-13 19:00N 48°23' W 004°28'  
Track history (hours):
 
Tides and Currents Weather Stations Pressure Air Temp Water Temp Dewpoint Dewpoint Depression Visibility Wind Speed Wind Dir Waves Ship Positions

Robuste

Last reported at 2018-Feb-19 21:31 UTC. Time now 2018-Feb-19 22:00 UTC.
Position N 48°23' W 004°27'.

Length 30 m; draft 4.9 m.

Type: Tug. MMSI: 227006750.

Date/timePositionNaut miles runAvg speedWind from/ knotsBaromVisibWave heightAir tempDewpointWater temp
2018-Feb-19 21:31N 48°23' W 004°27'2 3.2
2018-Feb-19 21:01N 48°22' W 004°29'0 0.7
2018-Feb-19 20:31N 48°22' W 004°30'1 0.2
2018-Feb-19 15:32N 48°23' W 004°29'0 0.2
2018-Feb-19 15:31N 48°23' W 004°29'1 2.5
2018-Feb-19 15:00N 48°23' W 004°27'1 0.2
2018-Feb-19 09:48N 48°23' W 004°29'1 4.2
2018-Feb-19 09:30N 48°23' W 004°27'1 2.4
2018-Feb-19 09:01N 48°22' W 004°28'1 1.5
2018-Feb-19 08:31N 48°22' W 004°29'1 0.0
2018-Feb-18 04:10N 48°23' W 004°29'1 3.3
2018-Feb-18 04:00N 48°23' W 004°28'1 1.6
2018-Feb-18 03:31N 48°23' W 004°27'2 3.6
2018-Feb-18 03:01N 48°22' W 004°29'1 2.6
2018-Feb-18 02:30N 48°23' W 004°29'  
2018-Feb-14 07:28N 48°23' W 004°29'1 1.9
2018-Feb-14 07:01N 48°23' W 004°28'1 1.8
2018-Feb-14 06:31N 48°22' W 004°28'2 3.6
2018-Feb-14 06:01N 48°22' W 004°31'2 0.2
2018-Feb-13 19:57N 48°23' W 004°29'1 1.6
2018-Feb-13 19:30N 48°23' W 004°28'0 0.2
2018-Feb-13 19:00N 48°23' W 004°28'  

Dump ship's entire track history